»·PEaware :: FDX5954 KLAS-KABQ

FDX5954 :: KLAS-KABQ

FLIGHT INFORMATION

Flight Status: Arrived
Operator:
Federal Express
More flights by this operator :: More flights under this callsign
Pilot: Joshua M. (19482)
Aircraft: MCDONNELL-DOUGLAS MD-82
(MD82)
More flights by this aircraft type
Origin: KLAS McCarran Intl
United States
Destination: KABQ Albuquerque Intl Sunport
United States
More flights between these airports :: More routes between these airports
Route: COWBY8 GUP LOWBO3
File this flight plan on PilotEdge
Remarks: Outdated FMC Default XPlane
Altitude:
(Current/Filed)
33,000ft
Speed:
(Current/Filed)
400kts
Departed: 05-Aug-18 07:26 PM
Arrived: 05-Aug-18 08:48 PM
Distance/Time
Traveled:
421nm/1:22
Distance/Time
To Go:
Arrived

Flight Plot

Page will automatically refresh every two minutes.

Flight plan parsing failed; only flown route is shown


Map Options




Map Legend


Flown Route
Filed Route
Departure Airport
Arrival Airport
Navaid (VOR, NDB)
Fix

Horizontal Profiles

Position Reports

Time Latitude Longitude Heading Altitude Ground
Speed
05-Aug-18 18:49 36.079638 -115.125642 89 2188ft 0kts
05-Aug-18 18:50 36.079638 -115.125642 89 2188ft 0kts
05-Aug-18 18:51 36.079638 -115.125642 89 2188ft 0kts
05-Aug-18 18:52 36.079638 -115.125642 89 2188ft 0kts
05-Aug-18 18:53 36.079638 -115.125642 89 2188ft 0kts
05-Aug-18 18:54 36.079638 -115.125642 89 2188ft 0kts
05-Aug-18 18:55 36.079638 -115.125642 89 2188ft 0kts
05-Aug-18 18:56 36.079638 -115.125642 89 2188ft 0kts
05-Aug-18 18:57 36.079638 -115.125642 89 2188ft 0kts
05-Aug-18 18:58 36.079638 -115.125642 89 2188ft 0kts
05-Aug-18 18:59 36.079685 -115.125985 84 2188ft 2kts
05-Aug-18 19:00 36.079666 -115.126714 89 2188ft 2kts
05-Aug-18 19:01 36.079665 -115.126777 89 2188ft 0kts
05-Aug-18 19:02 36.079665 -115.126777 89 2188ft 0kts
05-Aug-18 19:03 36.079665 -115.126777 89 2188ft 0kts
05-Aug-18 19:04 36.079665 -115.126777 89 2188ft 0kts
05-Aug-18 19:05 36.079665 -115.126777 89 2188ft 0kts
05-Aug-18 19:06 36.079665 -115.126777 89 2188ft 0kts
05-Aug-18 19:07 36.079665 -115.126777 89 2188ft 0kts
05-Aug-18 19:08 36.079665 -115.126777 89 2188ft 0kts
05-Aug-18 19:09 36.079665 -115.126777 89 2188ft 0kts
05-Aug-18 19:10 36.079665 -115.126777 89 2188ft 0kts
05-Aug-18 19:11 36.079655 -115.126622 108 2188ft 1kts
05-Aug-18 19:12 36.079067 -115.126396 177 2188ft 0kts
05-Aug-18 19:13 36.079067 -115.126396 177 2188ft 0kts
05-Aug-18 19:14 36.079067 -115.126396 177 2188ft 0kts
05-Aug-18 19:15 36.079067 -115.126396 177 2188ft 0kts
05-Aug-18 19:16 36.079067 -115.126396 177 2188ft 0kts
05-Aug-18 19:17 36.079067 -115.126396 177 2188ft 0kts
05-Aug-18 19:18 36.079067 -115.126396 177 2188ft 0kts
05-Aug-18 19:19 36.079067 -115.126396 177 2188ft 0kts
05-Aug-18 19:20 36.079067 -115.126396 177 2188ft 0kts
05-Aug-18 19:21 36.079067 -115.126396 177 2188ft 0kts
05-Aug-18 19:22 36.079002 -115.126390 176 2188ft 2kts
05-Aug-18 19:23 36.078271 -115.123277 92 2188ft 17kts
05-Aug-18 19:24 36.077450 -115.121444 141 2188ft 0kts
05-Aug-18 19:25 36.077450 -115.121444 141 2188ft 0kts
05-Aug-18 19:26 36.076486 -115.121474 246 2188ft 8kts
05-Aug-18 19:27 36.076490 -115.139337 269 2188ft 131kts
05-Aug-18 19:28 36.076592 -115.196301 265 2846ft 205kts
05-Aug-18 19:29 36.054869 -115.255728 209 4492ft 253kts
05-Aug-18 19:30 35.989004 -115.292542 202 7003ft 274kts
05-Aug-18 19:31 35.913420 -115.278491 167 9896ft 290kts
05-Aug-18 19:32 35.861222 -115.223087 114 12290ft 309kts
05-Aug-18 19:33 35.835545 -115.131460 108 13669ft 356kts
05-Aug-18 19:34 35.827477 -115.016750 86 16301ft 371kts
05-Aug-18 19:35 35.835641 -114.919550 86 18260ft 380kts
05-Aug-18 19:36 35.847898 -114.782804 86 19047ft 381kts
05-Aug-18 19:37 35.858627 -114.662465 86 19345ft 390kts
05-Aug-18 19:38 35.867740 -114.559241 86 21091ft 401kts
05-Aug-18 19:39 35.880814 -114.409298 85 23418ft 414kts
05-Aug-18 19:40 35.890316 -114.298979 86 25026ft 421kts
05-Aug-18 19:41 35.901556 -114.166898 86 27265ft 413kts
05-Aug-18 19:42 35.913992 -114.018405 86 28772ft 426kts
05-Aug-18 19:43 35.921175 -113.907029 99 29746ft 434kts
05-Aug-18 19:44 35.905117 -113.785408 104 30902ft 440kts
05-Aug-18 19:45 35.884235 -113.651961 104 32220ft 445kts
05-Aug-18 19:46 35.864061 -113.524601 104 33006ft 445kts
05-Aug-18 19:47 35.841722 -113.384722 104 32829ft 431kts
05-Aug-18 19:48 35.818405 -113.240065 105 33054ft 443kts
05-Aug-18 19:49 35.793731 -113.087994 105 33558ft 462kts
05-Aug-18 19:50 35.768613 -112.934694 104 33699ft 459kts
05-Aug-18 19:51 35.743841 -112.784549 103 33439ft 441kts
05-Aug-18 19:52 35.720028 -112.641156 104 33252ft 426kts
05-Aug-18 19:53 35.695438 -112.494633 103 33474ft 455kts
05-Aug-18 19:54 35.669542 -112.341372 104 33886ft 486kts
05-Aug-18 19:55 35.641976 -112.179414 104 35756ft 466kts
05-Aug-18 19:56 35.615542 -112.025718 104 33420ft 464kts
05-Aug-18 19:57 35.593489 -111.876609 95 33283ft 427kts
05-Aug-18 19:58 35.588757 -111.737627 93 33261ft 397kts
05-Aug-18 19:59 35.584988 -111.603887 93 33308ft 406kts
05-Aug-18 20:00 35.580801 -111.460532 93 33314ft 437kts
05-Aug-18 20:01 35.576184 -111.308690 94 33463ft 453kts
05-Aug-18 20:02 35.571258 -111.153566 94 33406ft 458kts
05-Aug-18 20:03 35.566126 -110.998890 93 33309ft 451kts
05-Aug-18 20:04 35.560922 -110.846583 92 33303ft 449kts
05-Aug-18 20:05 35.555516 -110.693405 92 33310ft 450kts
05-Aug-18 20:06 35.549919 -110.541114 92 33311ft 449kts
05-Aug-18 20:07 35.544145 -110.389217 92 33313ft 449kts
05-Aug-18 20:08 35.538224 -110.238421 93 33306ft 449kts
05-Aug-18 20:09 35.532109 -110.087532 93 33335ft 449kts
05-Aug-18 20:10 35.525741 -109.935085 93 33426ft 449kts
05-Aug-18 20:11 35.519209 -109.783313 93 33451ft 449kts
05-Aug-18 20:12 35.512457 -109.630911 93 33449ft 449kts
05-Aug-18 20:13 35.505535 -109.478969 93 33452ft 449kts
05-Aug-18 20:14 35.498387 -109.326227 94 33450ft 449kts
05-Aug-18 20:15 35.491096 -109.174832 94 33447ft 449kts
05-Aug-18 20:16 35.483617 -109.023385 93 31291ft 445kts
05-Aug-18 20:17 35.476174 -108.875245 92 29472ft 432kts
05-Aug-18 20:18 35.471803 -108.730509 91 27954ft 422kts
05-Aug-18 20:19 35.467433 -108.588698 92 26887ft 411kts
05-Aug-18 20:20 35.463049 -108.451397 92 25747ft 413kts
05-Aug-18 20:21 35.458603 -108.317205 92 25611ft 386kts
05-Aug-18 20:22 35.454190 -108.188262 92 25122ft 381kts
05-Aug-18 20:23 35.449521 -108.055826 92 25134ft 408kts
05-Aug-18 20:24 35.444614 -107.920805 92 25255ft 405kts
05-Aug-18 20:25 35.439488 -107.784228 92 25767ft 406kts
05-Aug-18 20:26 35.434690 -107.659835 92 25404ft 371kts
05-Aug-18 20:27 35.429966 -107.540297 93 23366ft 375kts
05-Aug-18 20:28 35.425380 -107.427249 93 21858ft 367kts
05-Aug-18 20:29 35.421360 -107.330093 93 20553ft 360kts
05-Aug-18 20:30 35.417704 -107.242926 93 19355ft 354kts
05-Aug-18 20:31 35.413738 -107.168972 106 18320ft 348kts
05-Aug-18 20:32 35.357285 -107.108384 147 16799ft 332kts
05-Aug-18 20:33 35.299190 -107.057988 146 15610ft 324kts
05-Aug-18 20:34 35.234526 -107.001170 146 14822ft 287kts
05-Aug-18 20:35 35.169842 -106.944486 146 12930ft 300kts
05-Aug-18 20:36 35.104225 -106.886963 146 10102ft 290kts
05-Aug-18 20:37 35.046406 -106.834404 128 8626ft 245kts
05-Aug-18 20:38 35.043433 -106.756671 93 8725ft 253kts
05-Aug-18 20:39 35.043589 -106.666622 89 6256ft 269kts
05-Aug-18 20:40 35.045678 -106.580577 86 5636ft 237kts
05-Aug-18 20:41 35.062007 -106.515057 45 7436ft 234kts
05-Aug-18 20:42 35.115099 -106.508425 327 8920ft 192kts
05-Aug-18 20:43 35.141408 -106.569990 277 9064ft 230kts
05-Aug-18 20:44 35.151304 -106.642996 277 9038ft 199kts
05-Aug-18 20:45 35.128940 -106.688971 187 8712ft 203kts
05-Aug-18 20:46 35.071327 -106.693153 185 7949ft 204kts
05-Aug-18 20:47 35.042295 -106.650487 74 6161ft 226kts
05-Aug-18 20:48 35.044195 -106.586629 89 5361ft 100kts
05-Aug-18 20:49 35.044977 -106.577131 9 5361ft 0kts
05-Aug-18 20:50 35.044977 -106.577131 9 5361ft 0kts
05-Aug-18 20:51 35.045738 -106.578091 267 5361ft 11kts
05-Aug-18 20:52 35.045783 -106.583768 270 5361ft 21kts
05-Aug-18 20:53 35.045793 -106.591502 271 5361ft 23kts
05-Aug-18 20:54 35.045827 -106.599366 267 5361ft 23kts
05-Aug-18 20:55 35.045795 -106.607491 271 5361ft 24kts
05-Aug-18 20:56 35.045879 -106.615722 270 5361ft 24kts

Navigation Log

Ident Type
Flight plan parsing failed, navigation log unavailable